sensor_id;sensor_type;location;lat;lon;timestamp;pressure;altitude;pressure_sealevel;temperature;humidity
8069;BME280;4077;43.702;24.896;2022-10-16T00:02:17;100244.69;;;5.29;100.00
8069;BME280;4077;43.702;24.896;2022-10-16T00:04:42;100247.25;;;5.29;100.00
8069;BME280;4077;43.702;24.896;2022-10-16T00:07:08;100242.66;;;5.22;100.00
8069;BME280;4077;43.702;24.896;2022-10-16T00:09:33;100244.25;;;5.20;100.00
8069;BME280;4077;43.702;24.896;2022-10-16T00:11:58;100253.69;;;5.21;100.00
8069;BME280;4077;43.702;24.896;2022-10-16T00:14:24;100251.88;;;5.18;100.00
8069;BME280;4077;43.702;24.896;2022-10-16T00:16:49;100255.31;;;5.19;100.00
8069;BME280;4077;43.702;24.896;2022-10-16T00:19:15;100255.78;;;5.10;100.00
8069;BME280;4077;43.702;24.896;2022-10-16T00:21:41;100247.88;;;5.06;100.00
8069;BME280;4077;43.702;24.896;2022-10-16T00:24:08;100252.88;;;5.03;100.00
8069;BME280;4077;43.702;24.896;2022-10-16T00:26:36;100246.72;;;4.99;100.00
8069;BME280;4077;43.702;24.896;2022-10-16T00:29:02;100248.28;;;4.96;100.00
8069;BME280;4077;43.702;24.896;2022-10-16T00:31:28;100257.53;;;4.93;100.00
8069;BME280;4077;43.702;24.896;2022-10-16T00:33:54;100256.47;;;4.88;100.00
8069;BME280;4077;43.702;24.896;2022-10-16T00:36:22;100262.25;;;4.84;100.00
8069;BME280;4077;43.702;24.896;2022-10-16T00:38:53;100257.78;;;4.80;100.00
8069;BME280;4077;43.702;24.896;2022-10-16T00:41:20;100258.59;;;4.79;100.00
8069;BME280;4077;43.702;24.896;2022-10-16T00:43:57;100263.41;;;4.73;100.00
8069;BME280;4077;43.702;24.896;2022-10-16T00:46:26;100264.72;;;4.65;100.00
8069;BME280;4077;43.702;24.896;2022-10-16T00:51:31;100256.75;;;4.59;100.00
8069;BME280;4077;43.702;24.896;2022-10-16T00:53:58;100256.69;;;4.57;100.00
8069;BME280;4077;43.702;24.896;2022-10-16T00:56:24;100256.47;;;4.53;100.00
8069;BME280;4077;43.702;24.896;2022-10-16T00:58:49;100255.69;;;4.54;100.00
8069;BME280;4077;43.702;24.896;2022-10-16T01:01:15;100253.91;;;4.53;100.00
8069;BME280;4077;43.702;24.896;2022-10-16T01:03:41;100260.94;;;4.57;100.00
8069;BME280;4077;43.702;24.896;2022-10-16T01:08:55;100265.75;;;4.51;100.00
8069;BME280;4077;43.702;24.896;2022-10-16T01:17:14;100262.47;;;4.35;100.00
8069;BME280;4077;43.702;24.896;2022-10-16T01:22:38;100262.22;;;4.31;100.00
8069;BME280;4077;43.702;24.896;2022-10-16T01:25:11;100255.25;;;4.27;100.00
8069;BME280;4077;43.702;24.896;2022-10-16T01:27:40;100251.56;;;4.22;100.00
8069;BME280;4077;43.702;24.896;2022-10-16T01:30:20;100239.59;;;4.21;100.00
8069;BME280;4077;43.702;24.896;2022-10-16T01:32:52;100263.97;;;4.32;100.00
8069;BME280;4077;43.702;24.896;2022-10-16T01:35:36;100257.06;;;4.29;100.00
8069;BME280;4077;43.702;24.896;2022-10-16T01:40:52;100256.13;;;4.27;100.00
8069;BME280;4077;43.702;24.896;2022-10-16T01:43:28;100261.88;;;4.23;100.00
8069;BME280;4077;43.702;24.896;2022-10-16T01:45:57;100271.28;;;4.24;100.00
8069;BME280;4077;43.702;24.896;2022-10-16T01:48:24;100267.78;;;4.22;100.00
8069;BME280;4077;43.702;24.896;2022-10-16T01:51:05;100273.94;;;4.26;100.00
8069;BME280;4077;43.702;24.896;2022-10-16T01:53:33;100274.63;;;4.23;100.00
8069;BME280;4077;43.702;24.896;2022-10-16T01:56:00;100279.03;;;4.26;100.00
8069;BME280;4077;43.702;24.896;2022-10-16T01:58:27;100278.94;;;4.24;100.00
8069;BME280;4077;43.702;24.896;2022-10-16T02:00:59;100284.72;;;4.20;100.00
8069;BME280;4077;43.702;24.896;2022-10-16T02:03:24;100280.19;;;4.15;100.00
8069;BME280;4077;43.702;24.896;2022-10-16T02:05:55;100270.03;;;4.16;100.00
8069;BME280;4077;43.702;24.896;2022-10-16T02:08:24;100270.59;;;4.10;100.00
8069;BME280;4077;43.702;24.896;2022-10-16T02:10:51;100293.03;;;4.16;100.00
8069;BME280;4077;43.702;24.896;2022-10-16T02:13:25;100285.06;;;4.10;100.00
8069;BME280;4077;43.702;24.896;2022-10-16T02:15:53;100294.78;;;4.17;100.00
8069;BME280;4077;43.702;24.896;2022-10-16T02:18:19;100301.50;;;4.15;100.00
8069;BME280;4077;43.702;24.896;2022-10-16T02:21:16;100306.47;;;4.12;100.00
8069;BME280;4077;43.702;24.896;2022-10-16T02:23:54;100308.03;;;4.10;100.00
8069;BME280;4077;43.702;24.896;2022-10-16T02:26:29;100309.19;;;3.99;100.00
8069;BME280;4077;43.702;24.896;2022-10-16T02:29:00;100319.56;;;4.02;100.00
8069;BME280;4077;43.702;24.896;2022-10-16T02:31:32;100312.38;;;3.95;100.00
8069;BME280;4077;43.702;24.896;2022-10-16T02:34:01;100318.94;;;3.90;100.00
8069;BME280;4077;43.702;24.896;2022-10-16T02:36:34;100321.28;;;3.85;100.00
8069;BME280;4077;43.702;24.896;2022-10-16T02:39:03;100314.25;;;3.81;100.00
8069;BME280;4077;43.702;24.896;2022-10-16T02:41:30;100319.34;;;3.81;100.00
8069;BME280;4077;43.702;24.896;2022-10-16T02:43:56;100315.03;;;3.80;100.00
8069;BME280;4077;43.702;24.896;2022-10-16T02:46:21;100321.81;;;3.79;100.00
8069;BME280;4077;43.702;24.896;2022-10-16T02:48:47;100318.28;;;3.77;100.00
8069;BME280;4077;43.702;24.896;2022-10-16T02:51:13;100322.53;;;3.77;100.00
8069;BME280;4077;43.702;24.896;2022-10-16T02:53:39;100313.84;;;3.73;100.00
8069;BME280;4077;43.702;24.896;2022-10-16T02:56:04;100296.19;;;3.62;100.00
8069;BME280;4077;43.702;24.896;2022-10-16T02:58:29;100314.47;;;3.69;100.00
8069;BME280;4077;43.702;24.896;2022-10-16T03:00:55;100312.56;;;3.65;100.00
8069;BME280;4077;43.702;24.896;2022-10-16T03:03:21;100310.72;;;3.63;100.00
8069;BME280;4077;43.702;24.896;2022-10-16T03:05:46;100321.03;;;3.64;100.00
8069;BME280;4077;43.702;24.896;2022-10-16T03:08:12;100306.28;;;3.59;100.00
8069;BME280;4077;43.702;24.896;2022-10-16T03:10:38;100315.94;;;3.64;100.00
8069;BME280;4077;43.702;24.896;2022-10-16T03:13:03;100311.06;;;3.52;100.00
8069;BME280;4077;43.702;24.896;2022-10-16T03:15:29;100324.84;;;3.56;100.00
8069;BME280;4077;43.702;24.896;2022-10-16T03:17:57;100325.56;;;3.53;100.00
8069;BME280;4077;43.702;24.896;2022-10-16T03:20:24;100332.28;;;3.51;100.00
8069;BME280;4077;43.702;24.896;2022-10-16T03:22:49;100329.22;;;3.42;100.00
8069;BME280;4077;43.702;24.896;2022-10-16T03:25:15;100335.28;;;3.44;100.00
8069;BME280;4077;43.702;24.896;2022-10-16T03:27:40;100330.09;;;3.43;100.00
8069;BME280;4077;43.702;24.896;2022-10-16T03:30:06;100326.59;;;3.41;100.00
8069;BME280;4077;43.702;24.896;2022-10-16T03:32:32;100334.41;;;3.44;100.00
8069;BME280;4077;43.702;24.896;2022-10-16T03:34:57;100320.34;;;3.36;100.00
8069;BME280;4077;43.702;24.896;2022-10-16T03:37:23;100343.91;;;3.46;100.00
8069;BME280;4077;43.702;24.896;2022-10-16T03:39:49;100330.75;;;3.39;100.00
8069;BME280;4077;43.702;24.896;2022-10-16T03:42:14;100306.38;;;3.29;100.00
8069;BME280;4077;43.702;24.896;2022-10-16T03:44:40;100334.09;;;3.38;100.00
8069;BME280;4077;43.702;24.896;2022-10-16T03:47:05;100334.88;;;3.37;100.00
8069;BME280;4077;43.702;24.896;2022-10-16T03:49:31;100339.81;;;3.34;100.00
8069;BME280;4077;43.702;24.896;2022-10-16T03:51:56;100339.66;;;3.31;100.00
8069;BME280;4077;43.702;24.896;2022-10-16T03:54:22;100332.81;;;3.29;100.00
8069;BME280;4077;43.702;24.896;2022-10-16T03:56:47;100338.84;;;3.32;100.00
8069;BME280;4077;43.702;24.896;2022-10-16T03:59:14;100339.31;;;3.24;100.00
8069;BME280;4077;43.702;24.896;2022-10-16T04:01:40;100345.22;;;3.23;100.00
8069;BME280;4077;43.702;24.896;2022-10-16T04:04:05;100357.25;;;3.26;100.00
8069;BME280;4077;43.702;24.896;2022-10-16T04:06:31;100355.78;;;3.29;100.00
8069;BME280;4077;43.702;24.896;2022-10-16T04:08:56;100359.28;;;3.32;100.00
8069;BME280;4077;43.702;24.896;2022-10-16T04:11:22;100339.00;;;3.18;100.00
8069;BME280;4077;43.702;24.896;2022-10-16T04:13:47;100362.63;;;3.31;100.00
8069;BME280;4077;43.702;24.896;2022-10-16T04:16:13;100369.28;;;3.28;100.00
8069;BME280;4077;43.702;24.896;2022-10-16T04:18:38;100357.97;;;3.23;100.00
8069;BME280;4077;43.702;24.896;2022-10-16T04:21:05;100362.91;;;3.20;100.00
8069;BME280;4077;43.702;24.896;2022-10-16T04:23:30;100361.16;;;3.19;100.00
8069;BME280;4077;43.702;24.896;2022-10-16T04:25:56;100361.06;;;3.18;100.00
8069;BME280;4077;43.702;24.896;2022-10-16T04:28:21;100359.72;;;3.24;100.00
8069;BME280;4077;43.702;24.896;2022-10-16T04:30:47;100359.72;;;3.24;100.00
8069;BME280;4077;43.702;24.896;2022-10-16T04:33:12;100365.00;;;3.27;100.00
8069;BME280;4077;43.702;24.896;2022-10-16T04:35:38;100347.97;;;3.12;100.00
8069;BME280;4077;43.702;24.896;2022-10-16T04:38:03;100365.13;;;3.14;100.00
8069;BME280;4077;43.702;24.896;2022-10-16T04:40:29;100374.28;;;3.11;100.00
8069;BME280;4077;43.702;24.896;2022-10-16T04:42:58;100373.16;;;3.06;100.00
8069;BME280;4077;43.702;24.896;2022-10-16T04:45:24;100368.41;;;2.97;100.00
8069;BME280;4077;43.702;24.896;2022-10-16T04:47:50;100380.66;;;3.03;100.00
8069;BME280;4077;43.702;24.896;2022-10-16T04:50:15;100374.31;;;2.96;100.00
8069;BME280;4077;43.702;24.896;2022-10-16T04:52:41;100378.63;;;2.97;100.00
8069;BME280;4077;43.702;24.896;2022-10-16T04:55:07;100381.97;;;2.96;100.00
8069;BME280;4077;43.702;24.896;2022-10-16T04:57:33;100370.34;;;2.86;100.00
8069;BME280;4077;43.702;24.896;2022-10-16T04:59:58;100330.75;;;2.62;100.00
8069;BME280;4077;43.702;24.896;2022-10-16T05:02:24;100365.97;;;2.84;100.00
8069;BME280;4077;43.702;24.896;2022-10-16T05:04:49;100387.84;;;2.95;100.00
8069;BME280;4077;43.702;24.896;2022-10-16T05:07:15;100393.72;;;2.94;100.00
8069;BME280;4077;43.702;24.896;2022-10-16T05:09:40;100399.97;;;2.99;100.00
8069;BME280;4077;43.702;24.896;2022-10-16T05:12:06;100402.38;;;2.96;100.00
8069;BME280;4077;43.702;24.896;2022-10-16T05:14:32;100405.69;;;2.95;100.00
8069;BME280;4077;43.702;24.896;2022-10-16T05:16:59;100404.28;;;3.00;100.00
8069;BME280;4077;43.702;24.896;2022-10-16T05:19:25;100405.34;;;3.04;100.00
8069;BME280;4077;43.702;24.896;2022-10-16T05:21:50;100412.19;;;3.05;100.00
8069;BME280;4077;43.702;24.896;2022-10-16T05:24:16;100413.06;;;3.05;100.00
8069;BME280;4077;43.702;24.896;2022-10-16T05:26:41;100419.13;;;3.07;100.00
8069;BME280;4077;43.702;24.896;2022-10-16T05:29:07;100424.50;;;3.12;100.00
8069;BME280;4077;43.702;24.896;2022-10-16T05:31:32;100413.06;;;3.05;100.00
8069;BME280;4077;43.702;24.896;2022-10-16T05:33:58;100421.34;;;3.16;100.00
8069;BME280;4077;43.702;24.896;2022-10-16T05:36:25;100439.63;;;3.23;100.00
8069;BME280;4077;43.702;24.896;2022-10-16T05:38:51;100428.97;;;3.31;100.00
8069;BME280;4077;43.702;24.896;2022-10-16T05:41:16;100428.16;;;3.32;100.00
8069;BME280;4077;43.702;24.896;2022-10-16T05:43:47;100436.50;;;3.44;100.00
8069;BME280;4077;43.702;24.896;2022-10-16T05:46:12;100435.69;;;3.45;100.00
8069;BME280;4077;43.702;24.896;2022-10-16T05:48:38;100431.47;;;3.45;100.00
8069;BME280;4077;43.702;24.896;2022-10-16T05:51:06;100448.34;;;3.58;100.00
8069;BME280;4077;43.702;24.896;2022-10-16T05:53:35;100459.03;;;3.67;100.00
8069;BME280;4077;43.702;24.896;2022-10-16T05:56:02;100461.28;;;3.77;100.00
8069;BME280;4077;43.702;24.896;2022-10-16T05:58:33;100460.19;;;3.89;100.00
8069;BME280;4077;43.702;24.896;2022-10-16T06:01:04;100467.66;;;4.00;100.00
8069;BME280;4077;43.702;24.896;2022-10-16T06:03:29;100461.25;;;4.08;100.00
8069;BME280;4077;43.702;24.896;2022-10-16T06:05:55;100467.66;;;4.17;100.00
8069;BME280;4077;43.702;24.896;2022-10-16T06:08:22;100476.22;;;4.33;100.00
8069;BME280;4077;43.702;24.896;2022-10-16T06:10:48;100481.94;;;4.46;100.00
8069;BME280;4077;43.702;24.896;2022-10-16T06:13:14;100467.97;;;4.55;100.00
8069;BME280;4077;43.702;24.896;2022-10-16T06:15:41;100475.38;;;4.67;100.00
8069;BME280;4077;43.702;24.896;2022-10-16T06:18:09;100479.34;;;4.78;100.00
8069;BME280;4077;43.702;24.896;2022-10-16T06:20:36;100482.75;;;4.95;100.00
8069;BME280;4077;43.702;24.896;2022-10-16T06:23:01;100487.09;;;5.14;100.00
8069;BME280;4077;43.702;24.896;2022-10-16T06:25:27;100478.50;;;5.30;100.00
8069;BME280;4077;43.702;24.896;2022-10-16T06:27:52;100465.16;;;6.10;100.00
8069;BME280;4077;43.702;24.896;2022-10-16T06:30:18;100521.31;;;7.42;100.00
8069;BME280;4077;43.702;24.896;2022-10-16T06:32:43;100529.09;;;8.09;100.00
8069;BME280;4077;43.702;24.896;2022-10-16T06:35:09;100535.44;;;8.40;100.00
8069;BME280;4077;43.702;24.896;2022-10-16T06:37:34;100546.41;;;8.58;100.00
8069;BME280;4077;43.702;24.896;2022-10-16T06:40:00;100556.47;;;8.76;100.00
8069;BME280;4077;43.702;24.896;2022-10-16T06:42:25;100548.31;;;8.88;100.00
8069;BME280;4077;43.702;24.896;2022-10-16T06:44:51;100551.53;;;9.06;100.00
8069;BME280;4077;43.702;24.896;2022-10-16T06:47:16;100562.56;;;9.27;100.00
8069;BME280;4077;43.702;24.896;2022-10-16T06:49:42;100559.75;;;9.47;100.00
8069;BME280;4077;43.702;24.896;2022-10-16T06:52:07;100548.31;;;9.64;100.00
8069;BME280;4077;43.702;24.896;2022-10-16T06:54:33;100572.16;;;9.84;100.00
8069;BME280;4077;43.702;24.896;2022-10-16T06:56:58;100562.91;;;9.91;100.00
8069;BME280;4077;43.702;24.896;2022-10-16T06:59:25;100574.78;;;10.14;100.00
8069;BME280;4077;43.702;24.896;2022-10-16T07:01:50;100579.56;;;10.29;100.00
8069;BME280;4077;43.702;24.896;2022-10-16T07:04:16;100576.50;;;10.40;100.00
8069;BME280;4077;43.702;24.896;2022-10-16T07:06:41;100566.81;;;10.33;100.00
8069;BME280;4077;43.702;24.896;2022-10-16T07:09:11;100562.53;;;10.34;100.00
8069;BME280;4077;43.702;24.896;2022-10-16T07:11:38;100568.78;;;10.42;100.00
8069;BME280;4077;43.702;24.896;2022-10-16T07:14:04;100586.47;;;10.57;100.00
8069;BME280;4077;43.702;24.896;2022-10-16T07:16:31;100574.56;;;10.63;100.00
8069;BME280;4077;43.702;24.896;2022-10-16T07:18:59;100567.94;;;10.72;100.00
8069;BME280;4077;43.702;24.896;2022-10-16T07:21:30;100586.28;;;10.82;100.00
8069;BME280;4077;43.702;24.896;2022-10-16T07:23:59;100583.06;;;10.89;100.00
8069;BME280;4077;43.702;24.896;2022-10-16T07:26:27;100587.16;;;10.83;100.00
8069;BME280;4077;43.702;24.896;2022-10-16T07:28:53;100590.34;;;10.73;100.00
8069;BME280;4077;43.702;24.896;2022-10-16T07:31:20;100583.06;;;10.89;100.00
8069;BME280;4077;43.702;24.896;2022-10-16T07:33:46;100590.25;;;11.00;100.00
8069;BME280;4077;43.702;24.896;2022-10-16T07:36:14;100591.22;;;11.05;100.00
8069;BME280;4077;43.702;24.896;2022-10-16T07:38:40;100576.38;;;10.98;100.00
8069;BME280;4077;43.702;24.896;2022-10-16T07:41:07;100582.84;;;11.13;100.00
8069;BME280;4077;43.702;24.896;2022-10-16T07:43:33;100594.53;;;11.32;100.00
8069;BME280;4077;43.702;24.896;2022-10-16T07:45:59;100585.19;;;11.37;100.00
8069;BME280;4077;43.702;24.896;2022-10-16T07:48:27;100593.28;;;11.49;100.00
8069;BME280;4077;43.702;24.896;2022-10-16T07:51:03;100588.81;;;11.44;100.00
8069;BME280;4077;43.702;24.896;2022-10-16T07:53:29;100577.44;;;11.37;100.00
8069;BME280;4077;43.702;24.896;2022-10-16T07:56:03;100580.06;;;11.39;100.00
8069;BME280;4077;43.702;24.896;2022-10-16T07:58:29;100595.03;;;11.50;100.00
8069;BME280;4077;43.702;24.896;2022-10-16T08:00:55;100591.66;;;11.53;100.00
8069;BME280;4077;43.702;24.896;2022-10-16T08:03:21;100578.50;;;11.45;100.00
8069;BME280;4077;43.702;24.896;2022-10-16T08:05:47;100575.22;;;11.52;100.00
8069;BME280;4077;43.702;24.896;2022-10-16T08:08:14;100599.78;;;11.68;100.00
8069;BME280;4077;43.702;24.896;2022-10-16T08:10:40;100590.38;;;11.72;100.00
8069;BME280;4077;43.702;24.896;2022-10-16T08:13:05;100586.94;;;11.73;100.00
8069;BME280;4077;43.702;24.896;2022-10-16T08:15:31;100601.00;;;11.81;100.00
8069;BME280;4077;43.702;24.896;2022-10-16T08:17:58;100599.47;;;11.89;100.00
8069;BME280;4077;43.702;24.896;2022-10-16T08:20:24;100600.50;;;11.96;100.00
8069;BME280;4077;43.702;24.896;2022-10-16T08:22:49;100602.97;;;11.93;100.00
8069;BME280;4077;43.702;24.896;2022-10-16T08:25:15;100605.84;;;12.03;100.00
8069;BME280;4077;43.702;24.896;2022-10-16T08:27:40;100618.06;;;12.09;100.00
8069;BME280;4077;43.702;24.896;2022-10-16T08:30:06;100604.38;;;12.15;100.00
8069;BME280;4077;43.702;24.896;2022-10-16T08:32:32;100617.53;;;12.24;100.00
8069;BME280;4077;43.702;24.896;2022-10-16T08:34:57;100609.88;;;12.28;100.00
8069;BME280;4077;43.702;24.896;2022-10-16T08:37:23;100614.28;;;12.34;100.00
8069;BME280;4077;43.702;24.896;2022-10-16T08:39:48;100619.31;;;12.28;100.00
8069;BME280;4077;43.702;24.896;2022-10-16T08:45:13;100615.56;;;12.51;100.00
8069;BME280;4077;43.702;24.896;2022-10-16T08:50:27;100620.16;;;12.65;100.00
8069;BME280;4077;43.702;24.896;2022-10-16T08:52:54;100622.78;;;12.68;100.00
8069;BME280;4077;43.702;24.896;2022-10-16T08:55:43;100626.53;;;12.82;100.00
8069;BME280;4077;43.702;24.896;2022-10-16T09:00:38;100617.53;;;13.05;100.00
8069;BME280;4077;43.702;24.896;2022-10-16T09:06:10;100623.28;;;13.33;100.00
8069;BME280;4077;43.702;24.896;2022-10-16T09:16:47;100645.13;;;15.21;100.00
8069;BME280;4077;43.702;24.896;2022-10-16T09:21:49;100631.72;;;14.86;100.00
8069;BME280;4077;43.702;24.896;2022-10-16T09:24:17;100639.06;;;14.51;100.00
8069;BME280;4077;43.702;24.896;2022-10-16T09:26:45;100629.97;;;14.24;100.00
8069;BME280;4077;43.702;24.896;2022-10-16T09:29:12;100628.94;;;14.13;100.00
8069;BME280;4077;43.702;24.896;2022-10-16T09:31:38;100620.97;;;14.01;100.00
8069;BME280;4077;43.702;24.896;2022-10-16T09:34:05;100627.84;;;13.99;100.00
8069;BME280;4077;43.702;24.896;2022-10-16T09:36:40;100631.50;;;14.10;100.00
8069;BME280;4077;43.702;24.896;2022-10-16T09:39:08;100631.63;;;14.19;100.00
8069;BME280;4077;43.702;24.896;2022-10-16T09:41:36;100629.13;;;14.26;100.00
8069;BME280;4077;43.702;24.896;2022-10-16T09:44:03;100634.47;;;14.35;100.00
8069;BME280;4077;43.702;24.896;2022-10-16T09:46:34;100630.53;;;14.61;100.00
8069;BME280;4077;43.702;24.896;2022-10-16T09:49:16;100625.41;;;14.67;100.00
8069;BME280;4077;43.702;24.896;2022-10-16T09:51:44;100618.63;;;14.78;100.00
8069;BME280;4077;43.702;24.896;2022-10-16T09:54:17;100625.75;;;14.93;100.00
8069;BME280;4077;43.702;24.896;2022-10-16T09:56:43;100629.13;;;14.86;100.00
8069;BME280;4077;43.702;24.896;2022-10-16T10:01:56;100615.47;;;15.04;100.00
8069;BME280;4077;43.702;24.896;2022-10-16T10:04:24;100634.72;;;15.18;98.61
8069;BME280;4077;43.702;24.896;2022-10-16T10:06:57;100626.13;;;15.25;100.00
8069;BME280;4077;43.702;24.896;2022-10-16T10:09:25;100621.88;;;15.35;93.65
8069;BME280;4077;43.702;24.896;2022-10-16T10:14:36;100620.06;;;15.29;97.05
8069;BME280;4077;43.702;24.896;2022-10-16T10:22:30;100620.25;;;15.48;99.13
8069;BME280;4077;43.702;24.896;2022-10-16T10:30:51;100610.72;;;15.48;90.14
8069;BME280;4077;43.702;24.896;2022-10-16T10:39:14;100619.63;;;15.67;87.82
8069;BME280;4077;43.702;24.896;2022-10-16T10:47:38;100611.00;;;15.74;82.01
8069;BME280;4077;43.702;24.896;2022-10-16T10:50:52;100603.19;;;15.77;81.79
8069;BME280;4077;43.702;24.896;2022-10-16T10:56:20;100605.91;;;15.86;79.51
8069;BME280;4077;43.702;24.896;2022-10-16T11:01:29;100605.78;;;15.74;75.84
8069;BME280;4077;43.702;24.896;2022-10-16T11:06:35;100601.34;;;15.63;74.88
8069;BME280;4077;43.702;24.896;2022-10-16T11:11:34;100596.91;;;15.54;75.98
8069;BME280;4077;43.702;24.896;2022-10-16T11:14:23;100590.66;;;15.37;73.78
8069;BME280;4077;43.702;24.896;2022-10-16T11:17:00;100601.03;;;15.30;76.21
8069;BME280;4077;43.702;24.896;2022-10-16T11:22:01;100598.50;;;15.41;73.14
8069;BME280;4077;43.702;24.896;2022-10-16T11:24:42;100601.19;;;15.47;72.42
8069;BME280;4077;43.702;24.896;2022-10-16T11:27:15;100589.84;;;15.44;73.89
8069;BME280;4077;43.702;24.896;2022-10-16T11:29:51;100595.97;;;15.44;74.82
8069;BME280;4077;43.702;24.896;2022-10-16T11:35:23;100588.91;;;15.32;70.66
8069;BME280;4077;43.702;24.896;2022-10-16T11:37:51;100604.53;;;15.37;69.84
8069;BME280;4077;43.702;24.896;2022-10-16T11:40:28;100605.44;;;15.41;69.95
8069;BME280;4077;43.702;24.896;2022-10-16T11:43:22;100601.91;;;15.32;71.03
8069;BME280;4077;43.702;24.896;2022-10-16T11:45:53;100596.66;;;15.29;70.47
8069;BME280;4077;43.702;24.896;2022-10-16T11:52:00;100598.34;;;15.24;70.69
8069;BME280;4077;43.702;24.896;2022-10-16T11:57:47;100593.09;;;15.18;73.09
8069;BME280;4077;43.702;24.896;2022-10-16T12:02:54;100589.69;;;15.24;70.58
8069;BME280;4077;43.702;24.896;2022-10-16T12:08:19;100579.25;;;15.22;70.44
8069;BME280;4077;43.702;24.896;2022-10-16T12:10:46;100598.44;;;15.32;71.16
8069;BME280;4077;43.702;24.896;2022-10-16T12:13:32;100586.16;;;15.20;69.85
8069;BME280;4077;43.702;24.896;2022-10-16T12:16:20;100590.50;;;15.23;70.83
8069;BME280;4077;43.702;24.896;2022-10-16T12:18:47;100573.16;;;15.20;70.75
8069;BME280;4077;43.702;24.896;2022-10-16T12:21:14;100584.44;;;15.19;70.66
8069;BME280;4077;43.702;24.896;2022-10-16T12:23:51;100588.84;;;15.29;71.37
8069;BME280;4077;43.702;24.896;2022-10-16T12:26:29;100591.44;;;15.26;72.23
8069;BME280;4077;43.702;24.896;2022-10-16T12:28:55;100586.16;;;15.20;70.50
8069;BME280;4077;43.702;24.896;2022-10-16T12:31:43;100586.19;;;15.23;69.90
8069;BME280;4077;43.702;24.896;2022-10-16T12:34:35;100580.16;;;15.24;70.50
8069;BME280;4077;43.702;24.896;2022-10-16T12:37:13;100589.69;;;15.25;71.32
8069;BME280;4077;43.702;24.896;2022-10-16T12:39:39;100584.38;;;15.16;70.96
8069;BME280;4077;43.702;24.896;2022-10-16T12:44:51;100586.22;;;15.25;69.28
8069;BME280;4077;43.702;24.896;2022-10-16T12:47:23;100587.09;;;15.27;68.71
8069;BME280;4077;43.702;24.896;2022-10-16T12:49:52;100589.69;;;15.25;69.24
8069;BME280;4077;43.702;24.896;2022-10-16T12:54:56;100584.47;;;15.24;68.79
8069;BME280;4077;43.702;24.896;2022-10-16T12:57:49;100583.63;;;15.26;70.37
8069;BME280;4077;43.702;24.896;2022-10-16T13:00:26;100576.63;;;15.18;70.78
8069;BME280;4077;43.702;24.896;2022-10-16T13:03:04;100584.44;;;15.19;70.40
8069;BME280;4077;43.702;24.896;2022-10-16T13:14:17;100595.72;;;15.21;68.69
8069;BME280;4077;43.702;24.896;2022-10-16T13:22:51;100583.56;;;15.19;67.11
8069;BME280;4077;43.702;24.896;2022-10-16T13:28:04;100590.50;;;15.18;67.03
8069;BME280;4077;43.702;24.896;2022-10-16T13:30:36;100583.56;;;15.19;68.11
8069;BME280;4077;43.702;24.896;2022-10-16T13:33:07;100577.41;;;15.12;69.45
8069;BME280;4077;43.702;24.896;2022-10-16T13:35:35;100594.78;;;15.16;69.32
8069;BME280;4077;43.702;24.896;2022-10-16T13:38:14;100594.75;;;15.13;66.53
8069;BME280;4077;43.702;24.896;2022-10-16T13:43:38;100599.09;;;15.13;66.19
8069;BME280;4077;43.702;24.896;2022-10-16T13:46:10;100601.63;;;15.08;66.65
8069;BME280;4077;43.702;24.896;2022-10-16T13:48:36;100605.19;;;15.16;65.47
8069;BME280;4077;43.702;24.896;2022-10-16T13:51:06;100606.97;;;15.20;64.09
8069;BME280;4077;43.702;24.896;2022-10-16T13:53:35;100604.38;;;15.20;63.96
8069;BME280;4077;43.702;24.896;2022-10-16T13:56:04;100601.78;;;15.23;64.20
8069;BME280;4077;43.702;24.896;2022-10-16T13:58:30;100601.72;;;15.16;64.75
8069;BME280;4077;43.702;24.896;2022-10-16T14:01:00;100586.88;;;15.05;65.68
8069;BME280;4077;43.702;24.896;2022-10-16T14:03:28;100610.34;;;15.10;65.38
8069;BME280;4077;43.702;24.896;2022-10-16T14:05:57;100600.72;;;15.03;65.52
8069;BME280;4077;43.702;24.896;2022-10-16T14:08:24;100593.75;;;15.00;63.75
8069;BME280;4077;43.702;24.896;2022-10-16T14:10:53;100606.75;;;15.02;63.51
8069;BME280;4077;43.702;24.896;2022-10-16T14:13:34;100611.97;;;15.02;63.72
8069;BME280;4077;43.702;24.896;2022-10-16T14:16:06;100606.69;;;14.96;63.82
8069;BME280;4077;43.702;24.896;2022-10-16T14:18:33;100612.81;;;14.99;63.58
8069;BME280;4077;43.702;24.896;2022-10-16T14:21:13;100619.81;;;15.07;63.29
8069;BME280;4077;43.702;24.896;2022-10-16T14:23:41;100628.59;;;15.16;63.23
8069;BME280;4077;43.702;24.896;2022-10-16T14:26:13;100632.91;;;15.14;64.08
8069;BME280;4077;43.702;24.896;2022-10-16T14:28:40;100625.09;;;15.13;63.41
8069;BME280;4077;43.702;24.896;2022-10-16T14:33:49;100623.38;;;15.16;62.15
8069;BME280;4077;43.702;24.896;2022-10-16T14:36:15;100622.59;;;15.22;62.72
8069;BME280;4077;43.702;24.896;2022-10-16T14:41:15;100612.16;;;15.17;62.75
8069;BME280;4077;43.702;24.896;2022-10-16T14:43:42;100627.78;;;15.19;63.19
8069;BME280;4077;43.702;24.896;2022-10-16T14:46:20;100632.09;;;15.18;62.29
8069;BME280;4077;43.702;24.896;2022-10-16T14:48:51;100626.84;;;15.14;62.56
8069;BME280;4077;43.702;24.896;2022-10-16T14:51:19;100627.72;;;15.14;62.52
8069;BME280;4077;43.702;24.896;2022-10-16T14:53:46;100636.31;;;15.09;62.42
8069;BME280;4077;43.702;24.896;2022-10-16T14:56:25;100612.66;;;14.87;63.08
8069;BME280;4077;43.702;24.896;2022-10-16T14:58:53;100631.81;;;14.94;64.12
8069;BME280;4077;43.702;24.896;2022-10-16T15:01:20;100632.59;;;14.87;63.36
8069;BME280;4077;43.702;24.896;2022-10-16T15:03:45;100624.78;;;14.85;68.01
8069;BME280;4077;43.702;24.896;2022-10-16T15:06:15;100623.75;;;14.72;69.83
8069;BME280;4077;43.702;24.896;2022-10-16T15:08:41;100613.25;;;14.65;74.02
8069;BME280;4077;43.702;24.896;2022-10-16T15:11:14;100609.69;;;14.57;76.31
8069;BME280;4077;43.702;24.896;2022-10-16T15:13:40;100616.34;;;14.41;79.41